Aeroporto :
LOGIN :

Iscrizione | Disclaimer

   EN    FR    IT 

 










Sommario :    VFR   VFR Marginale   IFR   IFR Intensivo   IFR Molto Intensivo
Visibilità : 
Base nubi : 
>= 8 km
>= 3000ft
5 / 8 km
1000 / 3000 ft
1500m / 5 km
500 / 1000 ft
800 / 1500m
200 / 500 ft
< 800m
< 200 ft
Simboli :   Temporali  Nebbia  Neve Forte  Precipitazioni Forti  Vento > 20 kt
SIGMETs :   Varie  Temporali  Ghiacco  Turbolenza  Onda orograficha  Ceneri Vulcaniche







- Altitudine del aeroporto : 55 ft
- Codice IATA : DSA
- Carte del aeroporto


EGCN - Robin Hood Doncaster Sheffield

ULTIMO METAR :
  • 201820Z 11004KT 070V140 CAVOK 20/08 Q1029

METARs OBSOLETI :
  • 201750Z 12005KT CAVOK 21/07 Q1029
  • 201720Z 12005KT CAVOK 22/06 Q1029
  • 201650Z 13004KT 080V180 CAVOK 22/05 Q1029
  • 201620Z 15004KT 080V210 CAVOK 23/04 Q1030
  • 201550Z 14006KT 040V190 CAVOK 22/04 Q1030

TAF TAF EGCN
Valido dal 20 a 18 ore il 21 a 18 ore UTC


201657Z 2018/2118 VRB03KT 9999 FEW045
BECMG 2021/2024 6000
BECMG 2100/2103 3000 BR
PROB40
TEMPO 2101/2106 0300 FG BKN001
BECMG 2106/2108 7000 NSW
BECMG 2108/2111 18010KT 9999
Nessun NOTAM noto per questo aeroporto.



MetMap, La meteo Aeronautica in un colpo d'occhio ! - Copyright ORBIFLY Dicembre 2007 - Disclaimer

ORBIFLY MET'MAP TEAM :

Programmazione e sviluppo : Alexandra Zaïnal
Concezione e sviluppo : Baudouin d'Aumeries
Co-Programmazione e sviluppo : Marc-Olivier Méhu
Supporto tecnico e logistico : Manuel Goepfert
Aiuto per la traduzione : Arnaldo La Scala

Contatto : metmap@orbifly.com




FONTI E CREDITI :

   NOAA